Time;durP1;ratioP1;P1;durP2;ratioP2;P2;SDS_P1;SDS_P2;PMS_P1;PMS_P2;Temp;Humidity;BMP_temperature;BMP_pressure;BME280_temperature;BME280_humidity;BME280_pressure;Samples;Min_cycle;Max_cycle;Signal;HPM_P1;HPM_P2
2023/08/13 00:02:22;;;;;;;10.00;2.33;;;18.10;99.90;;;;;;4975576;28;36159;-94
2023/08/13 00:04:49;;;;;;;12.18;2.72;;;18.00;99.90;;;;;;4977574;28;37791;-94
2023/08/13 00:07:15;;;;;;;12.23;3.00;;;18.00;99.90;;;;;;4986370;28;39440;-94
2023/08/13 00:09:41;;;;;;;11.73;2.42;;;18.00;99.90;;;;;;4994633;28;37803;-93
2023/08/13 00:12:07;;;;;;;15.02;2.78;;;17.90;99.90;;;;;;5000141;28;38396;-93
2023/08/13 00:14:33;;;;;;;10.57;2.30;;;17.90;99.90;;;;;;4980687;28;37535;-94
2023/08/13 00:17:00;;;;;;;14.32;2.78;;;17.80;99.90;;;;;;4975154;28;37464;-94
2023/08/13 00:19:26;;;;;;;11.27;2.70;;;17.70;99.90;;;;;;4975528;28;36765;-93
2023/08/13 00:21:52;;;;;;;14.70;3.45;;;17.70;99.90;;;;;;4997957;28;37034;-95
2023/08/13 00:24:18;;;;;;;15.93;6.63;;;17.70;99.90;;;;;;4975231;28;38188;-93
2023/08/13 00:26:44;;;;;;;11.23;3.53;;;17.60;99.90;;;;;;4974322;28;37391;-93
2023/08/13 00:29:10;;;;;;;14.35;3.22;;;17.70;99.90;;;;;;4971946;28;38068;-94
2023/08/13 00:31:36;;;;;;;16.38;3.42;;;17.70;99.90;;;;;;4970437;28;36079;-94
2023/08/13 00:34:03;;;;;;;16.15;3.00;;;17.60;99.90;;;;;;4971227;28;37900;-93
2023/08/13 00:36:29;;;;;;;14.98;2.92;;;17.60;99.90;;;;;;4973545;28;37403;-94
2023/08/13 00:38:55;;;;;;;13.80;2.95;;;17.60;99.90;;;;;;4989533;28;38053;-93
2023/08/13 00:41:21;;;;;;;11.45;3.03;;;17.60;99.90;;;;;;4973028;28;35940;-93
2023/08/13 00:43:47;;;;;;;15.63;2.95;;;17.60;99.90;;;;;;4989544;28;39223;-93
2023/08/13 00:46:13;;;;;;;12.23;3.10;;;17.60;99.90;;;;;;4996744;28;39215;-94
2023/08/13 00:48:40;;;;;;;16.48;3.53;;;17.50;99.90;;;;;;4974948;28;38039;-94
2023/08/13 00:51:09;;;;;;;17.58;3.28;;;17.60;99.90;;;;;;4990225;28;37434;-94
2023/08/13 00:53:46;;;;;;;13.15;3.67;;;17.60;99.90;;;;;;4973896;28;38720;-94
2023/08/13 00:56:14;;;;;;;8.13;2.80;;;17.60;99.90;;;;;;4967625;28;38355;-92
2023/08/13 00:58:44;;;;;;;13.63;3.17;;;17.50;99.90;;;;;;4986077;28;38337;-94
2023/08/13 01:06:23;;;;;;;19.52;3.65;;;17.40;99.90;;;;;;5004514;28;20043;-86
2023/08/13 01:09:02;;;;;;;14.75;3.70;;;17.40;99.90;;;;;;5005719;28;37261;-88
2023/08/13 01:11:31;;;;;;;14.52;3.78;;;17.40;99.90;;;;;;4991959;28;47621;-88
2023/08/13 01:14:39;;;;;;;15.32;3.97;;;17.40;99.90;;;;;;5008002;28;37599;-89
2023/08/13 01:17:06;;;;;;;10.90;3.10;;;17.40;99.90;;;;;;4975057;28;47322;-89
2023/08/13 01:19:33;;;;;;;12.13;4.00;;;17.40;99.90;;;;;;4992708;28;37367;-89
2023/08/13 01:21:59;;;;;;;13.65;3.42;;;17.40;99.90;;;;;;5001077;28;37174;-87
2023/08/13 01:24:25;;;;;;;12.23;2.65;;;17.30;99.90;;;;;;4992273;28;38226;-87
2023/08/13 01:26:57;;;;;;;16.88;3.17;;;17.30;99.90;;;;;;4995035;28;37529;-87
2023/08/13 01:29:37;;;;;;;14.75;2.92;;;17.20;99.90;;;;;;5008107;28;37010;-87
2023/08/13 01:32:06;;;;;;;11.43;3.13;;;17.20;99.90;;;;;;5007503;28;36530;-87
2023/08/13 01:34:33;;;;;;;12.20;2.65;;;17.20;99.90;;;;;;5003119;28;37890;-88
2023/08/13 01:37:00;;;;;;;14.30;2.90;;;17.20;99.90;;;;;;5002733;28;37306;-88
2023/08/13 01:39:26;;;;;;;12.98;3.30;;;17.20;99.90;;;;;;5005638;28;36876;-88
2023/08/13 01:41:54;;;;;;;14.05;2.70;;;17.20;99.90;;;;;;5008893;28;36297;-87
2023/08/13 01:44:20;;;;;;;13.15;3.35;;;17.20;99.90;;;;;;5008859;28;39163;-88
2023/08/13 01:46:47;;;;;;;12.43;3.22;;;17.20;99.90;;;;;;4995401;28;37341;-88
2023/08/13 01:49:13;;;;;;;10.90;3.40;;;17.20;99.90;;;;;;4995541;28;37871;-87
2023/08/13 01:51:39;;;;;;;14.43;3.00;;;17.20;99.90;;;;;;5003672;28;37229;-87
2023/08/13 01:54:06;;;;;;;12.55;2.53;;;17.30;99.90;;;;;;4995384;28;38409;-89
2023/08/13 01:56:32;;;;;;;13.00;3.30;;;17.20;99.90;;;;;;5002793;28;37607;-88
2023/08/13 01:58:58;;;;;;;12.32;3.25;;;17.30;99.90;;;;;;5004584;28;39264;-90
2023/08/13 02:01:24;;;;;;;14.38;2.50;;;17.30;99.90;;;;;;5010344;28;36785;-89
2023/08/13 02:03:50;;;;;;;10.88;3.13;;;17.30;99.90;;;;;;5020465;28;38795;-89
2023/08/13 02:06:16;;;;;;;9.18;2.70;;;17.30;99.90;;;;;;5008729;28;37468;-87
2023/08/13 02:08:43;;;;;;;13.20;2.80;;;17.20;99.90;;;;;;5000392;28;37334;-89
2023/08/13 02:11:09;;;;;;;14.93;2.88;;;17.30;99.90;;;;;;5009892;28;37430;-88
2023/08/13 02:13:35;;;;;;;10.77;2.70;;;17.20;99.90;;;;;;5003306;28;37849;-89
2023/08/13 02:16:02;;;;;;;13.95;2.55;;;17.20;99.90;;;;;;5005794;28;38194;-89
2023/08/13 02:18:30;;;;;;;13.75;2.97;;;17.20;99.90;;;;;;5009498;28;47191;-88
2023/08/13 02:20:56;;;;;;;12.25;2.58;;;17.20;99.90;;;;;;5008459;28;36168;-89
2023/08/13 02:23:22;;;;;;;10.75;2.60;;;17.20;99.90;;;;;;5016252;28;37883;-87
2023/08/13 02:25:49;;;;;;;21.42;4.10;;;17.20;99.90;;;;;;5009321;28;38364;-88
2023/08/13 02:28:15;;;;;;;11.07;2.40;;;17.20;99.90;;;;;;5008867;28;37905;-88
2023/08/13 02:30:41;;;;;;;12.05;2.75;;;17.20;99.90;;;;;;5007677;28;36459;-88
2023/08/13 02:33:07;;;;;;;15.48;3.13;;;17.20;99.90;;;;;;5002952;28;37699;-88
2023/08/13 02:35:34;;;;;;;10.98;2.47;;;17.10;99.90;;;;;;5008605;28;37130;-88
2023/08/13 02:38:00;;;;;;;10.38;2.67;;;17.10;99.90;;;;;;5010743;28;37230;-87
2023/08/13 02:40:26;;;;;;;10.68;3.08;;;17.20;99.90;;;;;;5010319;28;36995;-87
2023/08/13 02:42:52;;;;;;;12.30;2.90;;;17.20;99.90;;;;;;4990506;28;37580;-87
2023/08/13 02:45:18;;;;;;;10.25;3.17;;;17.20;99.90;;;;;;5009440;28;39000;-88
2023/08/13 02:47:44;;;;;;;11.98;2.65;;;17.10;99.90;;;;;;5011833;28;38452;-88
2023/08/13 02:50:10;;;;;;;13.38;2.58;;;17.10;99.90;;;;;;5006351;28;35838;-88
2023/08/13 02:52:36;;;;;;;9.65;2.72;;;17.10;99.90;;;;;;5009366;28;37656;-88
2023/08/13 02:55:03;;;;;;;10.82;2.70;;;17.10;99.90;;;;;;5001941;28;38893;-87
2023/08/13 02:57:29;;;;;;;11.63;3.22;;;17.10;99.90;;;;;;5011240;28;40543;-89
2023/08/13 02:59:59;;;;;;;7.57;2.28;;;17.10;99.90;;;;;;5003298;28;36636;-88
2023/08/13 03:02:25;;;;;;;10.13;2.33;;;17.00;99.90;;;;;;5007300;28;37542;-90
2023/08/13 03:04:51;;;;;;;11.82;2.40;;;17.10;99.90;;;;;;5006122;28;38641;-86
2023/08/13 03:07:17;;;;;;;10.35;2.22;;;17.10;99.90;;;;;;4994301;28;39084;-87
2023/08/13 03:09:43;;;;;;;10.88;2.92;;;17.10;99.90;;;;;;5010763;28;36098;-88
2023/08/13 03:12:09;;;;;;;13.82;3.20;;;17.10;99.90;;;;;;5005000;28;37722;-87
2023/08/13 03:14:36;;;;;;;11.05;2.72;;;17.10;99.90;;;;;;5009232;28;37543;-89
2023/08/13 03:17:02;;;;;;;11.20;2.92;;;17.10;99.90;;;;;;5003582;28;37690;-88
2023/08/13 03:19:28;;;;;;;8.98;2.47;;;17.10;99.90;;;;;;5005531;28;37808;-89
2023/08/13 03:21:54;;;;;;;14.68;2.58;;;17.00;99.90;;;;;;5005988;28;38782;-88
2023/08/13 03:24:20;;;;;;;17.15;3.17;;;17.10;99.90;;;;;;5010559;28;38281;-88
2023/08/13 03:26:46;;;;;;;14.18;2.55;;;17.10;99.90;;;;;;5020466;28;38100;-88
2023/08/13 03:29:12;;;;;;;11.88;3.13;;;17.00;99.90;;;;;;5007436;28;36520;-88
2023/08/13 03:31:40;;;;;;;12.45;2.38;;;17.00;99.90;;;;;;5016211;28;37717;-89
2023/08/13 03:34:06;;;;;;;16.30;3.35;;;17.00;99.90;;;;;;5010329;28;37471;-88
2023/08/13 03:36:32;;;;;;;10.50;2.42;;;17.00;99.90;;;;;;5008184;28;39334;-88
2023/08/13 03:38:58;;;;;;;11.45;2.90;;;17.00;99.90;;;;;;5008587;28;37270;-87
2023/08/13 03:41:24;;;;;;;7.93;2.53;;;17.00;99.90;;;;;;5006284;28;39598;-88
2023/08/13 03:43:50;;;;;;;13.88;2.53;;;17.00;99.90;;;;;;5008840;28;37447;-88
2023/08/13 03:46:16;;;;;;;13.77;2.42;;;16.90;99.90;;;;;;5004297;28;37283;-88
2023/08/13 03:48:42;;;;;;;16.33;3.10;;;16.80;99.90;;;;;;5009767;28;37392;-89
2023/08/13 03:51:09;;;;;;;12.93;2.60;;;16.80;99.90;;;;;;5002758;28;37606;-87
2023/08/13 03:53:35;;;;;;;11.15;3.13;;;16.80;99.90;;;;;;5008500;28;37778;-89
2023/08/13 03:56:05;;;;;;;15.68;3.30;;;16.80;99.90;;;;;;5006726;28;36888;-88
2023/08/13 03:58:34;;;;;;;15.25;3.17;;;16.80;99.90;;;;;;5003643;28;47106;-88
2023/08/13 04:01:05;;;;;;;10.63;2.53;;;16.80;99.90;;;;;;5003113;28;39269;-90
2023/08/13 04:03:31;;;;;;;8.15;2.92;;;16.70;99.90;;;;;;5005972;28;48203;-87
2023/08/13 04:05:57;;;;;;;13.45;2.70;;;16.70;99.90;;;;;;5015606;28;37737;-87
2023/08/13 04:08:26;;;;;;;14.80;3.20;;;16.70;99.90;;;;;;5005284;28;36209;-89
2023/08/13 04:10:53;;;;;;;14.00;2.90;;;16.70;99.90;;;;;;5009530;28;39363;-89
2023/08/13 04:13:19;;;;;;;14.18;2.75;;;16.70;99.90;;;;;;5005843;28;37298;-89
2023/08/13 04:15:45;;;;;;;17.60;3.75;;;16.70;99.90;;;;;;4999172;28;38736;-88
2023/08/13 04:18:18;;;;;;;14.52;3.30;;;16.60;99.90;;;;;;4993107;28;20054;-90
2023/08/13 04:20:46;;;;;;;12.75;2.35;;;16.60;99.90;;;;;;5001551;28;38832;-89
2023/08/13 04:23:15;;;;;;;14.52;2.92;;;16.60;99.90;;;;;;5010337;28;39394;-88
2023/08/13 04:25:41;;;;;;;20.38;3.75;;;16.60;99.90;;;;;;5006376;28;38346;-89
2023/08/13 04:28:10;;;;;;;14.70;3.15;;;16.60;99.90;;;;;;5009604;28;37524;-90
2023/08/13 04:30:36;;;;;;;14.05;2.50;;;16.60;99.90;;;;;;5006639;28;38771;-90
2023/08/13 04:33:03;;;;;;;17.92;3.03;;;16.60;99.90;;;;;;5009033;28;37388;-90
2023/08/13 04:35:29;;;;;;;16.35;3.47;;;16.60;99.90;;;;;;5008504;28;49902;-90
2023/08/13 04:37:58;;;;;;;13.43;2.88;;;16.60;99.90;;;;;;5009257;28;36152;-90
2023/08/13 04:40:24;;;;;;;11.23;2.53;;;16.60;99.90;;;;;;5003589;28;39556;-90
2023/08/13 04:42:51;;;;;;;11.05;3.00;;;16.60;99.90;;;;;;5004190;28;37708;-89
2023/08/13 04:45:17;;;;;;;10.88;2.92;;;16.60;99.90;;;;;;4996402;28;38283;-89
2023/08/13 04:47:44;;;;;;;14.10;3.15;;;16.70;99.90;;;;;;5001789;28;37031;-90
2023/08/13 04:50:10;;;;;;;13.70;2.63;;;16.70;99.90;;;;;;4997028;28;38074;-90
2023/08/13 04:52:45;;;;;;;10.18;2.25;;;16.70;99.90;;;;;;5003289;28;39094;-88
2023/08/13 04:55:11;;;;;;;16.02;4.20;;;16.70;99.90;;;;;;5004687;28;37082;-90
2023/08/13 04:57:39;;;;;;;13.13;3.05;;;16.70;99.90;;;;;;5006907;28;36277;-89
2023/08/13 05:00:09;;;;;;;13.27;2.42;;;16.70;99.90;;;;;;5004264;28;39374;-88
2023/08/13 05:02:35;;;;;;;11.75;2.90;;;16.70;99.90;;;;;;5002887;28;37245;-87
2023/08/13 05:05:02;;;;;;;13.07;3.10;;;16.70;99.90;;;;;;5005899;28;38853;-89
2023/08/13 05:07:28;;;;;;;13.13;2.78;;;16.70;99.90;;;;;;5002356;28;37622;-89
2023/08/13 05:09:54;;;;;;;12.50;2.42;;;16.70;99.90;;;;;;5007845;28;39139;-90
2023/08/13 05:12:20;;;;;;;19.02;3.38;;;16.70;99.90;;;;;;5005204;28;37536;-90
2023/08/13 05:14:46;;;;;;;7.80;2.10;;;16.80;99.90;;;;;;5007284;28;37481;-90
2023/08/13 05:17:34;;;;;;;11.55;2.33;;;16.80;99.90;;;;;;5010267;28;35791;-89
2023/08/13 05:20:01;;;;;;;16.00;2.53;;;16.80;99.90;;;;;;5005348;28;39430;-89
2023/08/13 05:22:27;;;;;;;14.35;2.65;;;16.80;99.90;;;;;;5006529;28;38706;-89
2023/08/13 05:24:53;;;;;;;10.00;2.20;;;16.90;99.90;;;;;;5001930;28;36866;-90
2023/08/13 05:27:19;;;;;;;9.52;2.72;;;16.90;99.90;;;;;;5000317;28;36105;-89
2023/08/13 05:29:45;;;;;;;8.98;2.53;;;17.00;99.90;;;;;;5006420;28;37620;-89
2023/08/13 05:32:16;;;;;;;8.75;2.28;;;17.10;99.90;;;;;;5004943;28;38358;-89
2023/08/13 05:34:43;;;;;;;14.60;3.22;;;17.10;99.90;;;;;;5010425;28;37046;-90
2023/08/13 05:37:09;;;;;;;15.18;2.85;;;17.20;99.90;;;;;;5002893;28;36431;-89
2023/08/13 05:39:35;;;;;;;9.13;2.20;;;17.20;99.90;;;;;;5013208;28;38674;-90
2023/08/13 05:42:02;;;;;;;11.77;2.53;;;17.20;99.90;;;;;;5005382;28;37278;-88
2023/08/13 05:44:28;;;;;;;10.45;2.70;;;17.20;99.90;;;;;;5008430;28;38936;-90
2023/08/13 05:46:54;;;;;;;11.15;2.80;;;17.20;99.90;;;;;;5008763;28;36008;-90
2023/08/13 05:49:20;;;;;;;12.75;2.58;;;17.30;99.90;;;;;;5011467;28;38886;-89
2023/08/13 05:51:48;;;;;;;9.52;2.72;;;17.40;99.90;;;;;;5005374;28;37312;-90
2023/08/13 05:54:15;;;;;;;15.63;3.10;;;17.60;99.90;;;;;;5008468;28;37872;-90
2023/08/13 05:56:41;;;;;;;10.82;2.42;;;17.60;99.90;;;;;;5021058;28;38446;-90
2023/08/13 05:59:07;;;;;;;13.00;2.65;;;17.80;99.90;;;;;;4997456;28;37592;-90
2023/08/13 06:01:33;;;;;;;13.43;2.67;;;17.80;99.90;;;;;;5009879;28;37300;-90
2023/08/13 06:03:59;;;;;;;10.63;2.72;;;17.80;99.90;;;;;;5005615;28;36957;-89
2023/08/13 06:06:27;;;;;;;14.15;2.55;;;17.80;99.90;;;;;;5001242;28;37140;-89
2023/08/13 06:08:54;;;;;;;11.23;2.90;;;17.80;99.90;;;;;;5010043;28;38516;-88
2023/08/13 06:11:22;;;;;;;12.50;2.67;;;17.80;99.90;;;;;;5020760;28;37373;-87
2023/08/13 06:13:52;;;;;;;10.52;2.55;;;17.90;99.90;;;;;;5013574;28;37302;-88
2023/08/13 06:16:19;;;;;;;10.55;2.15;;;18.00;99.90;;;;;;5012556;28;37171;-89
2023/08/13 06:18:45;;;;;;;9.90;2.20;;;18.10;99.90;;;;;;5003576;28;38627;-87
2023/08/13 06:21:12;;;;;;;8.90;2.70;;;18.20;99.90;;;;;;5010725;28;37747;-85
2023/08/13 06:23:38;;;;;;;9.93;2.20;;;18.30;99.90;;;;;;5008816;28;38159;-88
2023/08/13 06:26:06;;;;;;;10.80;2.15;;;18.30;99.90;;;;;;5009742;28;36087;-87
2023/08/13 06:28:33;;;;;;;7.93;2.08;;;18.30;99.90;;;;;;5009676;28;37713;-86
2023/08/13 06:30:59;;;;;;;7.45;1.90;;;18.40;99.90;;;;;;5004571;28;37670;-86
2023/08/13 06:33:25;;;;;;;8.43;2.40;;;18.60;99.90;;;;;;5015255;28;37082;-88
2023/08/13 06:35:51;;;;;;;17.63;2.60;;;18.60;99.90;;;;;;5010976;28;36132;-87
2023/08/13 06:38:18;;;;;;;9.40;2.00;;;18.70;99.90;;;;;;5005270;28;38335;-86
2023/08/13 06:40:46;;;;;;;15.38;2.35;;;18.80;99.90;;;;;;5003635;28;38473;-87
2023/08/13 06:43:12;;;;;;;7.72;1.75;;;18.90;99.90;;;;;;5010023;28;38383;-85
2023/08/13 06:45:39;;;;;;;9.13;1.90;;;19.00;99.90;;;;;;5007013;28;37617;-87
2023/08/13 06:48:06;;;;;;;11.30;2.30;;;19.10;99.90;;;;;;5005569;28;40515;-85
2023/08/13 06:50:33;;;;;;;9.63;2.15;;;19.00;99.90;;;;;;5004175;28;38482;-85
2023/08/13 06:53:04;;;;;;;6.25;1.65;;;19.10;99.90;;;;;;5006001;28;38164;-86
2023/08/13 06:55:31;;;;;;;8.23;1.83;;;19.10;99.90;;;;;;5012055;28;47286;-85
2023/08/13 06:57:58;;;;;;;10.68;1.90;;;19.20;99.90;;;;;;4999098;28;37420;-85
2023/08/13 07:00:24;;;;;;;7.28;1.90;;;19.20;99.90;;;;;;5018007;28;40018;-84
2023/08/13 07:02:50;;;;;;;9.60;1.95;;;19.20;99.90;;;;;;5006398;28;37427;-85
2023/08/13 07:05:18;;;;;;;10.77;1.65;;;19.30;99.90;;;;;;5005566;28;36050;-86
2023/08/13 07:07:44;;;;;;;7.80;1.70;;;19.20;99.90;;;;;;4992867;28;38537;-84
2023/08/13 07:10:10;;;;;;;7.05;1.67;;;19.30;99.90;;;;;;4998243;28;38245;-86
2023/08/13 07:12:36;;;;;;;8.15;2.15;;;19.40;99.90;;;;;;5013487;28;38487;-83
2023/08/13 07:15:03;;;;;;;7.28;1.63;;;19.40;99.90;;;;;;5002526;28;36974;-83
2023/08/13 07:17:30;;;;;;;7.30;1.63;;;19.50;99.90;;;;;;5004742;28;38883;-83
2023/08/13 07:19:56;;;;;;;8.30;2.22;;;19.60;99.90;;;;;;5004294;28;37301;-84
2023/08/13 07:22:22;;;;;;;5.35;1.23;;;19.70;99.90;;;;;;5006838;28;37198;-83
2023/08/13 07:24:52;;;;;;;7.00;2.03;;;19.80;99.90;;;;;;4993613;28;37298;-83
2023/08/13 07:28:32;;;;;;;;;;;;;;;;;;;;;
2023/08/13 07:31:21;;;;;;;7.55;1.60;;;20.10;99.90;;;;;;5003714;28;48665;-82
2023/08/13 07:37:12;;;;;;;5.65;1.65;;;20.10;99.90;;;;;;4917682;28;49374;-84
2023/08/13 07:39:38;;;;;;;7.75;1.35;;;20.00;99.90;;;;;;5006382;28;37645;-86
2023/08/13 07:42:08;;;;;;;3.97;1.42;;;20.00;99.90;;;;;;5007226;28;37822;-84
2023/08/13 07:44:35;;;;;;;9.75;1.83;;;20.00;99.90;;;;;;5008344;28;36876;-85
2023/08/13 07:47:02;;;;;;;9.15;1.80;;;20.00;99.90;;;;;;5008058;28;37907;-84
2023/08/13 07:49:28;;;;;;;8.98;1.50;;;20.00;99.90;;;;;;5011375;28;39467;-88
2023/08/13 07:51:54;;;;;;;9.27;2.15;;;19.90;99.90;;;;;;5004880;28;37757;-79
2023/08/13 07:54:22;;;;;;;6.30;1.70;;;19.80;99.90;;;;;;5000234;28;38925;-83
2023/08/13 07:56:48;;;;;;;5.13;1.30;;;19.80;99.90;;;;;;5012503;28;36418;-80
2023/08/13 07:59:14;;;;;;;6.47;1.27;;;20.00;99.90;;;;;;5008478;28;39066;-83
2023/08/13 08:01:42;;;;;;;7.00;1.50;;;20.10;99.90;;;;;;5006027;28;37500;-80
2023/08/13 08:04:08;;;;;;;8.03;1.80;;;20.10;99.90;;;;;;4965344;28;1282588;-81
2023/08/13 08:06:35;;;;;;;7.80;1.48;;;20.00;99.90;;;;;;5001214;28;37559;-82
2023/08/13 08:09:01;;;;;;;13.88;1.80;;;20.00;99.90;;;;;;5010682;28;38649;-80
2023/08/13 08:11:27;;;;;;;9.57;1.90;;;20.00;99.90;;;;;;5003089;28;46798;-75
2023/08/13 08:13:53;;;;;;;7.90;1.88;;;20.00;99.90;;;;;;4999064;28;37122;-75
2023/08/13 08:16:19;;;;;;;34.90;3.55;;;20.00;99.90;;;;;;4999549;28;37139;-76
2023/08/13 08:18:45;;;;;;;9.05;2.33;;;20.00;99.90;;;;;;4994210;28;38452;-80
2023/08/13 08:21:11;;;;;;;13.75;2.20;;;20.00;99.90;;;;;;4998709;28;35742;-84
2023/08/13 08:23:40;;;;;;;6.30;1.88;;;20.00;99.90;;;;;;4997095;28;38184;-83
2023/08/13 08:26:06;;;;;;;11.77;1.98;;;20.10;99.90;;;;;;4993805;28;37622;-83
2023/08/13 08:28:32;;;;;;;12.65;2.25;;;20.00;99.90;;;;;;4997370;28;38532;-78
2023/08/13 08:30:58;;;;;;;9.07;2.17;;;19.90;99.90;;;;;;5002212;28;39360;-73
2023/08/13 08:33:25;;;;;;;9.10;2.30;;;19.80;99.90;;;;;;4999332;28;38672;-73
2023/08/13 08:35:51;;;;;;;9.13;2.28;;;19.70;99.90;;;;;;5012093;28;37447;-73
2023/08/13 08:38:18;;;;;;;10.27;2.03;;;19.70;99.90;;;;;;5001755;28;38489;-82
2023/08/13 08:40:48;;;;;;;13.43;2.42;;;19.90;99.90;;;;;;5003543;28;37492;-81
2023/08/13 08:43:17;;;;;;;11.07;2.28;;;19.80;99.90;;;;;;4999913;28;37854;-82
2023/08/13 08:45:44;;;;;;;14.65;2.38;;;19.90;99.90;;;;;;5006437;28;38039;-81
2023/08/13 08:48:15;;;;;;;7.53;2.40;;;19.90;99.90;;;;;;4994408;28;38668;-80
2023/08/13 08:50:43;;;;;;;6.97;1.70;;;20.00;99.90;;;;;;4996392;28;39390;-78
2023/08/13 08:53:10;;;;;;;8.98;2.40;;;20.00;99.90;;;;;;4999001;28;38902;-78
2023/08/13 08:55:37;;;;;;;8.05;1.70;;;19.90;99.90;;;;;;4996758;28;37151;-78
2023/08/13 08:58:03;;;;;;;7.45;2.08;;;19.80;99.90;;;;;;4997554;28;37664;-77
2023/08/13 09:00:30;;;;;;;8.32;1.90;;;19.90;99.90;;;;;;4996455;28;38555;-77
2023/08/13 09:02:56;;;;;;;7.18;1.90;;;19.90;99.90;;;;;;4992904;28;37177;-76
2023/08/13 09:05:22;;;;;;;7.85;2.67;;;19.90;99.90;;;;;;4999396;28;37467;-79
2023/08/13 09:07:48;;;;;;;8.73;2.33;;;20.10;99.90;;;;;;5000123;28;37581;-78
2023/08/13 09:10:14;;;;;;;9.75;2.10;;;20.00;99.90;;;;;;5001512;28;38512;-76
2023/08/13 09:12:42;;;;;;;6.63;2.00;;;20.10;99.90;;;;;;5006420;28;37782;-77
2023/08/13 09:15:12;;;;;;;9.82;2.25;;;20.20;99.90;;;;;;4991900;28;36267;-83
2023/08/13 09:17:51;;;;;;;8.30;1.63;;;20.30;99.90;;;;;;4994783;28;38598;-81
2023/08/13 09:20:41;;;;;;;7.72;2.05;;;20.40;99.90;;;;;;4990688;28;37737;-85
2023/08/13 09:23:07;;;;;;;7.72;1.35;;;20.40;99.90;;;;;;5005163;28;38270;-81
2023/08/13 09:25:33;;;;;;;5.57;1.23;;;20.70;99.90;;;;;;5000595;28;37324;-82
2023/08/13 09:27:59;;;;;;;7.00;1.48;;;21.00;99.90;;;;;;4998175;28;38173;-79
2023/08/13 09:30:30;;;;;;;3.85;1.30;;;21.10;99.90;;;;;;4996225;28;38123;-81
2023/08/13 09:33:00;;;;;;;4.88;1.38;;;21.00;99.90;;;;;;4996365;28;40223;-80
2023/08/13 09:35:27;;;;;;;6.00;1.95;;;21.00;99.90;;;;;;5005731;28;37577;-80
2023/08/13 09:37:53;;;;;;;6.40;1.95;;;20.90;99.90;;;;;;4998629;28;38270;-81
2023/08/13 09:40:19;;;;;;;6.38;2.28;;;20.90;99.90;;;;;;4994238;28;37396;-79
2023/08/13 09:42:47;;;;;;;6.32;2.03;;;21.00;99.90;;;;;;4985257;28;37681;-83
2023/08/13 09:45:17;;;;;;;6.93;1.63;;;21.10;99.90;;;;;;4988340;28;38108;-81
2023/08/13 09:47:45;;;;;;;4.72;1.40;;;21.10;99.90;;;;;;4992716;28;37434;-82
2023/08/13 09:50:17;;;;;;;6.97;2.00;;;21.10;99.90;;;;;;5003566;28;37868;-81
2023/08/13 09:52:46;;;;;;;8.30;1.80;;;21.10;99.90;;;;;;5001177;28;36853;-82
2023/08/13 09:55:19;;;;;;;7.72;1.80;;;20.90;99.90;;;;;;4994334;28;36957;-80
2023/08/13 09:57:47;;;;;;;6.88;1.38;;;20.80;99.90;;;;;;4995881;28;39613;-89
2023/08/13 10:00:14;;;;;;;5.40;1.30;;;20.70;99.90;;;;;;4992267;28;38818;-82
2023/08/13 10:02:41;;;;;;;6.72;1.25;;;20.50;99.90;;;;;;4998722;28;36757;-83
2023/08/13 10:05:14;;;;;;;7.53;1.33;;;20.30;99.90;;;;;;4999655;28;36457;-81
2023/08/13 10:07:41;;;;;;;5.78;1.45;;;20.20;99.90;;;;;;5000122;28;38609;-84
2023/08/13 10:10:08;;;;;;;5.18;1.65;;;20.20;99.90;;;;;;4996527;28;39151;-76
2023/08/13 10:12:35;;;;;;;6.57;1.45;;;20.10;99.90;;;;;;4997157;28;38170;-85
2023/08/13 10:15:01;;;;;;;6.03;1.60;;;20.30;99.90;;;;;;4999119;28;36648;-84
2023/08/13 10:17:28;;;;;;;7.22;1.63;;;20.30;99.90;;;;;;5004096;28;37685;-82
2023/08/13 10:19:58;;;;;;;5.57;1.30;;;20.40;99.90;;;;;;5009618;28;38898;-86
2023/08/13 10:22:33;;;;;;;5.30;1.30;;;20.60;99.90;;;;;;5006715;28;36874;-84
2023/08/13 10:25:00;;;;;;;6.72;1.15;;;20.80;99.90;;;;;;5006727;28;36332;-88
2023/08/13 10:27:27;;;;;;;2.58;0.80;;;21.00;99.90;;;;;;5007011;28;37975;-83
2023/08/13 10:30:05;;;;;;;3.67;1.08;;;21.20;99.90;;;;;;5010538;28;37239;-84
2023/08/13 10:32:31;;;;;;;4.32;1.00;;;21.20;99.90;;;;;;5006100;28;38840;-87
2023/08/13 10:34:57;;;;;;;2.65;0.68;;;21.10;99.90;;;;;;5006486;28;36665;-84
2023/08/13 10:37:24;;;;;;;2.88;0.90;;;21.40;99.90;;;;;;5004861;28;37311;-81
2023/08/13 10:39:56;;;;;;;5.20;1.15;;;21.70;99.90;;;;;;5004628;28;38456;-88
2023/08/13 10:42:37;;;;;;;2.28;1.20;;;21.80;99.90;;;;;;4998800;28;36822;-82
2023/08/13 10:45:04;;;;;;;3.50;1.00;;;21.90;99.90;;;;;;5001494;28;36088;-82
2023/08/13 10:47:45;;;;;;;5.75;1.33;;;21.80;99.90;;;;;;4998696;28;48762;-83
2023/08/13 10:50:31;;;;;;;5.50;1.33;;;21.80;99.90;;;;;;5010969;28;36274;-84
2023/08/13 10:53:10;;;;;;;3.10;0.93;;;21.70;99.90;;;;;;5006040;28;37279;-83
2023/08/13 10:55:37;;;;;;;2.97;0.80;;;21.60;99.90;;;;;;5000580;28;47518;-86
2023/08/13 10:58:04;;;;;;;4.85;1.10;;;21.60;99.90;;;;;;4998060;28;37595;-88
2023/08/13 11:00:30;;;;;;;3.10;1.00;;;21.50;99.90;;;;;;4997077;28;37476;-87
2023/08/13 11:03:00;;;;;;;4.00;1.20;;;21.70;99.90;;;;;;5000329;28;37626;-84
2023/08/13 11:05:27;;;;;;;2.78;1.05;;;22.00;99.90;;;;;;4996440;28;37202;-82
2023/08/13 11:07:54;;;;;;;3.50;0.80;;;22.40;99.90;;;;;;5000648;28;38709;-83
2023/08/13 11:10:21;;;;;;;4.32;0.90;;;22.80;99.90;;;;;;5005177;28;39555;-85
2023/08/13 11:12:48;;;;;;;5.40;1.20;;;23.10;97.90;;;;;;5008492;28;38511;-84
2023/08/13 11:15:15;;;;;;;4.00;1.17;;;23.00;99.90;;;;;;5003305;28;37472;-83
2023/08/13 11:17:47;;;;;;;4.70;1.10;;;22.80;99.90;;;;;;4993684;28;40396;-84
2023/08/13 11:20:18;;;;;;;3.03;1.08;;;22.80;99.90;;;;;;4998634;28;38545;-81
2023/08/13 11:22:45;;;;;;;4.40;1.80;;;22.90;99.90;;;;;;4998784;28;38119;-82
2023/08/13 11:25:14;;;;;;;5.22;1.40;;;22.90;95.20;;;;;;4997039;28;36326;-82
2023/08/13 11:27:40;;;;;;;5.82;1.23;;;22.80;97.10;;;;;;4999577;28;38584;-83
2023/08/13 11:30:08;;;;;;;4.20;1.55;;;22.70;99.90;;;;;;4992791;28;38037;-87
2023/08/13 11:32:37;;;;;;;6.07;1.38;;;22.60;99.90;;;;;;4999177;28;48594;-84
2023/08/13 11:35:09;;;;;;;3.45;1.30;;;22.80;99.90;;;;;;5014140;28;36316;-83
2023/08/13 11:37:37;;;;;;;3.47;1.40;;;22.50;99.90;;;;;;4999140;28;47151;-86
2023/08/13 11:40:10;;;;;;;4.63;1.42;;;22.30;99.90;;;;;;5001395;28;37717;-86
2023/08/13 11:42:56;;;;;;;7.03;1.52;;;22.00;99.90;;;;;;4993634;28;47273;-84
2023/08/13 11:45:28;;;;;;;6.82;1.63;;;21.60;99.90;;;;;;4991832;28;37371;-86
2023/08/13 11:48:15;;;;;;;4.38;1.08;;;21.40;99.90;;;;;;4999383;28;39154;-86
2023/08/13 11:50:52;;;;;;;5.95;1.52;;;21.30;99.90;;;;;;5004564;28;48730;-84
2023/08/13 11:53:19;;;;;;;7.38;1.45;;;21.40;99.90;;;;;;5002578;28;37148;-83
2023/08/13 11:55:47;;;;;;;7.03;2.05;;;21.70;99.90;;;;;;5017219;28;36042;-82
2023/08/13 11:58:17;;;;;;;6.07;1.40;;;21.70;99.90;;;;;;5002065;28;37958;-82
2023/08/13 12:00:47;;;;;;;6.43;1.45;;;21.80;99.90;;;;;;5002594;28;38581;-86
2023/08/13 12:03:14;;;;;;;6.15;1.63;;;22.00;99.90;;;;;;5004874;28;37062;-84
2023/08/13 12:05:41;;;;;;;9.23;2.63;;;22.20;99.90;;;;;;4993146;28;36479;-85
2023/08/13 12:08:09;;;;;;;7.68;2.00;;;22.10;99.90;;;;;;4992026;28;37782;-83
2023/08/13 12:10:37;;;;;;;6.25;2.03;;;22.20;99.90;;;;;;5004637;28;37187;-81
2023/08/13 12:13:04;;;;;;;5.63;1.52;;;22.20;99.90;;;;;;4993780;28;38276;-79
2023/08/13 12:15:31;;;;;;;5.80;1.38;;;22.30;99.90;;;;;;5001005;28;37210;-79
2023/08/13 12:17:58;;;;;;;6.50;1.60;;;22.10;99.90;;;;;;5008269;28;36936;-83
2023/08/13 12:20:26;;;;;;;8.38;2.05;;;21.80;99.90;;;;;;4997235;28;38926;-84
2023/08/13 12:22:52;;;;;;;4.63;1.65;;;21.50;99.90;;;;;;5006163;28;38466;-83
2023/08/13 12:25:19;;;;;;;5.00;1.23;;;21.20;99.90;;;;;;4996993;28;36287;-80
2023/08/13 12:27:47;;;;;;;4.25;1.20;;;20.90;99.90;;;;;;5000432;28;38120;-84
2023/08/13 12:30:13;;;;;;;6.53;1.10;;;20.70;99.90;;;;;;4992524;28;38902;-83
2023/08/13 12:32:40;;;;;;;4.18;1.45;;;20.50;99.90;;;;;;5002705;28;37206;-83
2023/08/13 12:35:08;;;;;;;3.15;0.98;;;20.40;99.90;;;;;;4989926;28;37081;-83
2023/08/13 12:37:34;;;;;;;3.22;1.05;;;20.20;99.90;;;;;;5000536;28;37845;-83
2023/08/13 12:40:01;;;;;;;3.47;1.13;;;20.20;99.90;;;;;;4993390;28;38877;-83
2023/08/13 12:42:27;;;;;;;1.42;0.60;;;20.30;99.90;;;;;;4998111;28;38768;-82
2023/08/13 12:44:53;;;;;;;2.03;0.90;;;20.60;99.90;;;;;;4990492;28;36387;-82
2023/08/13 12:47:19;;;;;;;1.83;0.60;;;21.00;99.90;;;;;;4998159;28;37935;-82
2023/08/13 12:49:45;;;;;;;3.00;0.65;;;21.30;99.90;;;;;;4995706;28;39208;-77
2023/08/13 12:52:15;;;;;;;2.55;0.60;;;21.30;99.90;;;;;;5000517;28;37046;-78
2023/08/13 12:54:41;;;;;;;5.45;1.00;;;21.10;99.90;;;;;;4995150;28;36133;-82
2023/08/13 12:57:07;;;;;;;1.55;0.75;;;21.00;99.90;;;;;;4994144;28;39443;-86